sensor_id;sensor_type;location;lat;lon;timestamp;temperature;humidity
19403;DHT22;9837;48.888;8.998;2022-12-18T06:06:42;-4.60;67.30
19403;DHT22;9837;48.888;8.998;2022-12-18T06:09:08;-4.30;67.50
19403;DHT22;9837;48.888;8.998;2022-12-18T06:11:38;-4.20;65.20
19403;DHT22;9837;48.888;8.998;2022-12-18T06:14:06;-4.40;65.50
19403;DHT22;9837;48.888;8.998;2022-12-18T06:16:32;-4.40;65.70
19403;DHT22;9837;48.888;8.998;2022-12-18T06:19:02;-4.30;65.30
19403;DHT22;9837;48.888;8.998;2022-12-18T06:21:29;-4.30;65.30
19403;DHT22;9837;48.888;8.998;2022-12-18T06:23:54;-4.30;66.00
19403;DHT22;9837;48.888;8.998;2022-12-18T06:26:20;-4.40;65.40
19403;DHT22;9837;48.888;8.998;2022-12-18T06:28:46;-4.30;65.30
19403;DHT22;9837;48.888;8.998;2022-12-18T06:31:11;-4.30;66.00
19403;DHT22;9837;48.888;8.998;2022-12-18T06:33:37;-4.10;65.60
19403;DHT22;9837;48.888;8.998;2022-12-18T06:36:09;-4.00;63.90
19403;DHT22;9837;48.888;8.998;2022-12-18T06:38:36;-4.00;64.60
19403;DHT22;9837;48.888;8.998;2022-12-18T06:41:10;-3.70;64.80
19403;DHT22;9837;48.888;8.998;2022-12-18T06:43:36;-3.90;64.30
19403;DHT22;9837;48.888;8.998;2022-12-18T06:48:29;-4.20;64.00
19403;DHT22;9837;48.888;8.998;2022-12-18T06:50:56;-4.20;64.60
19403;DHT22;9837;48.888;8.998;2022-12-18T06:53:22;-4.10;64.70
19403;DHT22;9837;48.888;8.998;2022-12-18T06:55:47;-4.20;64.40
19403;DHT22;9837;48.888;8.998;2022-12-18T06:58:13;-4.20;64.30
19403;DHT22;9837;48.888;8.998;2022-12-18T07:00:39;-4.10;63.30
19403;DHT22;9837;48.888;8.998;2022-12-18T07:03:04;-4.10;64.00
19403;DHT22;9837;48.888;8.998;2022-12-18T07:05:30;-3.80;62.20
19403;DHT22;9837;48.888;8.998;2022-12-18T07:07:56;-3.80;61.90
19403;DHT22;9837;48.888;8.998;2022-12-18T07:10:21;-3.70;61.80
19403;DHT22;9837;48.888;8.998;2022-12-18T07:12:48;-3.80;62.40
19403;DHT22;9837;48.888;8.998;2022-12-18T07:15:13;-3.80;62.40
19403;DHT22;9837;48.888;8.998;2022-12-18T07:17:39;-3.80;62.40
19403;DHT22;9837;48.888;8.998;2022-12-18T07:20:05;-3.50;62.80
19403;DHT22;9837;48.888;8.998;2022-12-18T07:22:31;-3.90;62.80
19403;DHT22;9837;48.888;8.998;2022-12-18T07:24:56;-4.00;63.10
19403;DHT22;9837;48.888;8.998;2022-12-18T07:27:22;-3.90;63.20
19403;DHT22;9837;48.888;8.998;2022-12-18T07:29:48;-4.10;63.20
19403;DHT22;9837;48.888;8.998;2022-12-18T07:32:14;-3.80;64.10
19403;DHT22;9837;48.888;8.998;2022-12-18T07:34:39;-4.00;64.10
19403;DHT22;9837;48.888;8.998;2022-12-18T07:37:05;-3.90;63.90
19403;DHT22;9837;48.888;8.998;2022-12-18T07:39:32;-3.80;63.90
19403;DHT22;9837;48.888;8.998;2022-12-18T07:44:42;-3.70;63.20
19403;DHT22;9837;48.888;8.998;2022-12-18T07:47:08;-3.80;63.70
19403;DHT22;9837;48.888;8.998;2022-12-18T07:49:33;-3.60;63.80
19403;DHT22;9837;48.888;8.998;2022-12-18T07:51:59;-3.70;63.70
19403;DHT22;9837;48.888;8.998;2022-12-18T07:54:25;-3.80;63.90
19403;DHT22;9837;48.888;8.998;2022-12-18T07:56:51;-3.80;64.00
19403;DHT22;9837;48.888;8.998;2022-12-18T07:59:18;-3.50;63.10
19403;DHT22;9837;48.888;8.998;2022-12-18T08:01:44;-3.50;63.80
19403;DHT22;9837;48.888;8.998;2022-12-18T08:04:10;-3.30;62.30
19403;DHT22;9837;48.888;8.998;2022-12-18T08:09:02;-3.20;62.00
19403;DHT22;9837;48.888;8.998;2022-12-18T08:11:28;-3.00;62.70
19403;DHT22;9837;48.888;8.998;2022-12-18T08:13:54;-2.80;62.40
19403;DHT22;9837;48.888;8.998;2022-12-18T08:16:21;-2.60;61.50
19403;DHT22;9837;48.888;8.998;2022-12-18T08:21:19;-2.40;61.20
19403;DHT22;9837;48.888;8.998;2022-12-18T08:23:46;-2.50;61.50
19403;DHT22;9837;48.888;8.998;2022-12-18T08:26:12;-2.50;62.30
19403;DHT22;9837;48.888;8.998;2022-12-18T08:28:38;-2.40;63.00
19403;DHT22;9837;48.888;8.998;2022-12-18T08:31:04;-2.30;63.80
19403;DHT22;9837;48.888;8.998;2022-12-18T08:33:31;-2.00;62.00
19403;DHT22;9837;48.888;8.998;2022-12-18T08:35:58;-1.70;60.70
19403;DHT22;9837;48.888;8.998;2022-12-18T08:38:24;-0.60;57.20
19403;DHT22;9837;48.888;8.998;2022-12-18T08:43:16;-1.30;57.50
19403;DHT22;9837;48.888;8.998;2022-12-18T08:48:26;-1.90;59.60
19403;DHT22;9837;48.888;8.998;2022-12-18T08:50:58;-2.20;60.50
19403;DHT22;9837;48.888;8.998;2022-12-18T08:55:51;-2.40;61.40
19403;DHT22;9837;48.888;8.998;2022-12-18T08:58:17;-2.90;63.70
19403;DHT22;9837;48.888;8.998;2022-12-18T09:00:43;-3.10;64.90
19403;DHT22;9837;48.888;8.998;2022-12-18T09:03:16;-3.10;65.80
19403;DHT22;9837;48.888;8.998;2022-12-18T09:05:43;-3.00;66.20
19403;DHT22;9837;48.888;8.998;2022-12-18T09:08:09;-3.00;66.60
19403;DHT22;9837;48.888;8.998;2022-12-18T09:10:41;-3.00;66.30
19403;DHT22;9837;48.888;8.998;2022-12-18T09:13:07;-2.90;66.70
19403;DHT22;9837;48.888;8.998;2022-12-18T09:15:32;-2.80;66.80
19403;DHT22;9837;48.888;8.998;2022-12-18T09:17:58;-2.70;66.60
19403;DHT22;9837;48.888;8.998;2022-12-18T09:20:24;-2.60;66.30
19403;DHT22;9837;48.888;8.998;2022-12-18T09:25:16;-3.00;67.80
19403;DHT22;9837;48.888;8.998;2022-12-18T09:27:41;-3.10;69.00
19403;DHT22;9837;48.888;8.998;2022-12-18T09:30:07;-3.00;69.10
19403;DHT22;9837;48.888;8.998;2022-12-18T09:32:33;-3.00;69.60
19403;DHT22;9837;48.888;8.998;2022-12-18T09:34:59;-3.00;70.00
19403;DHT22;9837;48.888;8.998;2022-12-18T09:37:24;-2.70;70.00
19403;DHT22;9837;48.888;8.998;2022-12-18T09:39:50;-2.20;69.10
19403;DHT22;9837;48.888;8.998;2022-12-18T09:42:25;-1.90;67.60
19403;DHT22;9837;48.888;8.998;2022-12-18T09:44:53;-1.70;67.30
19403;DHT22;9837;48.888;8.998;2022-12-18T09:47:27;-1.70;67.90
19403;DHT22;9837;48.888;8.998;2022-12-18T09:50:01;-1.40;65.90
19403;DHT22;9837;48.888;8.998;2022-12-18T09:52:39;-1.20;65.40
19403;DHT22;9837;48.888;8.998;2022-12-18T09:55:15;-1.20;66.10
19403;DHT22;9837;48.888;8.998;2022-12-18T09:57:57;-1.00;65.60
19403;DHT22;9837;48.888;8.998;2022-12-18T10:00:26;-1.20;65.40
19403;DHT22;9837;48.888;8.998;2022-12-18T10:02:55;-1.40;66.00
19403;DHT22;9837;48.888;8.998;2022-12-18T10:05:46;-1.30;66.20
19403;DHT22;9837;48.888;8.998;2022-12-18T10:10:53;-1.20;64.50
19403;DHT22;9837;48.888;8.998;2022-12-18T10:13:30;-1.00;64.80
19403;DHT22;9837;48.888;8.998;2022-12-18T10:16:07;-1.00;65.50
19403;DHT22;9837;48.888;8.998;2022-12-18T10:21:09;-0.80;64.30
19403;DHT22;9837;48.888;8.998;2022-12-18T10:26:28;0.00;63.50
19403;DHT22;9837;48.888;8.998;2022-12-18T10:28:57;0.50;61.80
19403;DHT22;9837;48.888;8.998;2022-12-18T10:31:24;1.30;59.60
19403;DHT22;9837;48.888;8.998;2022-12-18T10:33:51;1.30;60.00
19403;DHT22;9837;48.888;8.998;2022-12-18T10:36:18;2.80;58.90
19403;DHT22;9837;48.888;8.998;2022-12-18T10:38:45;1.50;57.10
19403;DHT22;9837;48.888;8.998;2022-12-18T10:44:11;1.20;58.10
19403;DHT22;9837;48.888;8.998;2022-12-18T10:46:37;0.70;59.50
19403;DHT22;9837;48.888;8.998;2022-12-18T10:49:04;0.20;60.70
19403;DHT22;9837;48.888;8.998;2022-12-18T10:51:31;1.50;62.20
19403;DHT22;9837;48.888;8.998;2022-12-18T10:54:07;-0.10;62.10
19403;DHT22;9837;48.888;8.998;2022-12-18T10:59:16;0.10;62.50
19403;DHT22;9837;48.888;8.998;2022-12-18T11:04:21;0.10;63.00
19403;DHT22;9837;48.888;8.998;2022-12-18T11:07:00;0.10;62.80
19403;DHT22;9837;48.888;8.998;2022-12-18T11:09:31;0.20;63.50
19403;DHT22;9837;48.888;8.998;2022-12-18T11:12:14;0.60;63.20
19403;DHT22;9837;48.888;8.998;2022-12-18T11:14:47;0.10;63.50
19403;DHT22;9837;48.888;8.998;2022-12-18T11:19:53;0.60;64.60
19403;DHT22;9837;48.888;8.998;2022-12-18T11:22:22;0.20;63.80
19403;DHT22;9837;48.888;8.998;2022-12-18T11:27:23;0.20;63.60
19403;DHT22;9837;48.888;8.998;2022-12-18T11:29:50;3.00;66.10
19403;DHT22;9837;48.888;8.998;2022-12-18T11:32:48;1.10;64.50
19403;DHT22;9837;48.888;8.998;2022-12-18T11:37:59;0.60;62.50
19403;DHT22;9837;48.888;8.998;2022-12-18T11:40:41;0.60;63.20
19403;DHT22;9837;48.888;8.998;2022-12-18T11:43:19;3.10;65.00
19403;DHT22;9837;48.888;8.998;2022-12-18T11:46:01;0.70;63.50
19403;DHT22;9837;48.888;8.998;2022-12-18T11:51:29;0.80;63.30
19403;DHT22;9837;48.888;8.998;2022-12-18T11:53:57;0.70;63.30
19403;DHT22;9837;48.888;8.998;2022-12-18T11:56:35;0.60;63.70
19403;DHT22;9837;48.888;8.998;2022-12-18T12:01:50;0.70;63.50
19403;DHT22;9837;48.888;8.998;2022-12-18T12:04:53;0.80;62.50
19403;DHT22;9837;48.888;8.998;2022-12-18T12:15:44;0.50;63.30
19403;DHT22;9837;48.888;8.998;2022-12-18T12:21:52;1.20;61.40
19403;DHT22;9837;48.888;8.998;2022-12-18T12:24:37;2.60;62.90
19403;DHT22;9837;48.888;8.998;2022-12-18T12:27:15;1.40;61.60
19403;DHT22;9837;48.888;8.998;2022-12-18T12:40:47;1.80;59.80
19403;DHT22;9837;48.888;8.998;2022-12-18T12:43:41;4.60;62.10
19403;DHT22;9837;48.888;8.998;2022-12-18T12:46:13;1.80;59.20
19403;DHT22;9837;48.888;8.998;2022-12-18T12:53:46;1.60;59.40
19403;DHT22;9837;48.888;8.998;2022-12-18T12:56:15;1.60;59.60
19403;DHT22;9837;48.888;8.998;2022-12-18T12:58:57;1.80;60.30
19403;DHT22;9837;48.888;8.998;2022-12-18T13:02:06;1.60;59.50
19403;DHT22;9837;48.888;8.998;2022-12-18T13:05:26;1.50;60.10
19403;DHT22;9837;48.888;8.998;2022-12-18T13:07:57;1.90;60.00
19403;DHT22;9837;48.888;8.998;2022-12-18T13:13:12;2.20;58.30
19403;DHT22;9837;48.888;8.998;2022-12-18T13:16:04;2.20;58.80
19403;DHT22;9837;48.888;8.998;2022-12-18T13:18:33;2.20;58.80
19403;DHT22;9837;48.888;8.998;2022-12-18T13:21:34;2.00;58.90
19403;DHT22;9837;48.888;8.998;2022-12-18T13:30:59;2.30;58.80
19403;DHT22;9837;48.888;8.998;2022-12-18T13:33:52;2.70;59.30
19403;DHT22;9837;48.888;8.998;2022-12-18T13:46:51;2.00;60.00
19403;DHT22;9837;48.888;8.998;2022-12-18T13:53:21;1.70;60.50
19403;DHT22;9837;48.888;8.998;2022-12-18T14:02:27;1.80;60.60
19403;DHT22;9837;48.888;8.998;2022-12-18T14:05:41;1.80;60.30
19403;DHT22;9837;48.888;8.998;2022-12-18T14:08:49;1.80;61.00
19403;DHT22;9837;48.888;8.998;2022-12-18T14:14:49;1.70;61.20
19403;DHT22;9837;48.888;8.998;2022-12-18T14:21:30;1.20;62.10
19403;DHT22;9837;48.888;8.998;2022-12-18T14:27:44;1.30;61.90
19403;DHT22;9837;48.888;8.998;2022-12-18T14:30:36;1.20;62.40
19403;DHT22;9837;48.888;8.998;2022-12-18T14:33:05;1.70;62.20
19403;DHT22;9837;48.888;8.998;2022-12-18T14:35:33;0.90;62.70
19403;DHT22;9837;48.888;8.998;2022-12-18T14:38:22;0.80;63.10
19403;DHT22;9837;48.888;8.998;2022-12-18T14:41:03;0.90;62.90
19403;DHT22;9837;48.888;8.998;2022-12-18T14:43:36;0.90;63.00
19403;DHT22;9837;48.888;8.998;2022-12-18T14:46:20;0.90;63.60
19403;DHT22;9837;48.888;8.998;2022-12-18T14:48:48;0.90;63.50
19403;DHT22;9837;48.888;8.998;2022-12-18T14:51:23;0.60;63.90
19403;DHT22;9837;48.888;8.998;2022-12-18T14:54:04;0.70;64.40
19403;DHT22;9837;48.888;8.998;2022-12-18T14:56:36;0.80;63.80
19403;DHT22;9837;48.888;8.998;2022-12-18T14:59:17;0.60;64.30
19403;DHT22;9837;48.888;8.998;2022-12-18T15:01:56;0.60;64.60
19403;DHT22;9837;48.888;8.998;2022-12-18T15:04:30;1.70;66.00
19403;DHT22;9837;48.888;8.998;2022-12-18T15:07:23;0.70;65.30
19403;DHT22;9837;48.888;8.998;2022-12-18T15:12:50;0.40;65.60
19403;DHT22;9837;48.888;8.998;2022-12-18T15:20:48;1.00;63.80
19403;DHT22;9837;48.888;8.998;2022-12-18T15:23:20;1.00;64.50
19403;DHT22;9837;48.888;8.998;2022-12-18T15:25:48;0.90;63.70
19403;DHT22;9837;48.888;8.998;2022-12-18T15:28:23;1.00;64.40
19403;DHT22;9837;48.888;8.998;2022-12-18T15:33:39;0.80;65.00
19403;DHT22;9837;48.888;8.998;2022-12-18T15:36:09;0.80;65.70
19403;DHT22;9837;48.888;8.998;2022-12-18T15:38:35;2.30;66.60
19403;DHT22;9837;48.888;8.998;2022-12-18T15:41:02;0.50;66.00
19403;DHT22;9837;48.888;8.998;2022-12-18T15:43:30;0.70;65.40
19403;DHT22;9837;48.888;8.998;2022-12-18T15:46:19;0.70;66.10
19403;DHT22;9837;48.888;8.998;2022-12-18T15:48:47;0.80;64.90
19403;DHT22;9837;48.888;8.998;2022-12-18T15:51:35;0.80;65.60
19403;DHT22;9837;48.888;8.998;2022-12-18T15:54:03;0.70;65.10
19403;DHT22;9837;48.888;8.998;2022-12-18T15:56:30;0.70;65.70
19403;DHT22;9837;48.888;8.998;2022-12-18T15:59:17;0.80;64.00
19403;DHT22;9837;48.888;8.998;2022-12-18T16:01:45;0.90;64.40
19403;DHT22;9837;48.888;8.998;2022-12-18T16:04:13;0.70;64.40
19403;DHT22;9837;48.888;8.998;2022-12-18T16:06:40;0.80;64.60
19403;DHT22;9837;48.888;8.998;2022-12-18T16:09:06;1.10;65.50
19403;DHT22;9837;48.888;8.998;2022-12-18T16:11:34;0.70;64.70
19403;DHT22;9837;48.888;8.998;2022-12-18T16:14:25;0.50;65.00
19403;DHT22;9837;48.888;8.998;2022-12-18T16:17:00;0.60;65.00
19403;DHT22;9837;48.888;8.998;2022-12-18T16:19:30;0.50;65.30
19403;DHT22;9837;48.888;8.998;2022-12-18T16:22:24;0.50;65.10
19403;DHT22;9837;48.888;8.998;2022-12-18T16:24:56;0.40;65.70
19403;DHT22;9837;48.888;8.998;2022-12-18T16:32:32;0.50;65.70
19403;DHT22;9837;48.888;8.998;2022-12-18T16:35:01;0.40;65.90
19403;DHT22;9837;48.888;8.998;2022-12-18T16:37:36;0.40;65.90
19403;DHT22;9837;48.888;8.998;2022-12-18T16:40:05;0.30;65.70
19403;DHT22;9837;48.888;8.998;2022-12-18T16:42:35;0.40;66.00
19403;DHT22;9837;48.888;8.998;2022-12-18T16:47:29;0.40;66.20
19403;DHT22;9837;48.888;8.998;2022-12-18T16:50:34;0.00;66.50
19403;DHT22;9837;48.888;8.998;2022-12-18T16:53:31;0.10;67.00
19403;DHT22;9837;48.888;8.998;2022-12-18T16:56:55;0.10;67.50
19403;DHT22;9837;48.888;8.998;2022-12-18T17:00:14;0.30;66.90
19403;DHT22;9837;48.888;8.998;2022-12-18T17:08:25;0.20;67.00
19403;DHT22;9837;48.888;8.998;2022-12-18T17:13:45;0.80;67.30
19403;DHT22;9837;48.888;8.998;2022-12-18T17:21:11;0.50;67.40
19403;DHT22;9837;48.888;8.998;2022-12-18T17:23:40;0.50;67.70
19403;DHT22;9837;48.888;8.998;2022-12-18T17:28:37;0.50;66.80
19403;DHT22;9837;48.888;8.998;2022-12-18T17:31:12;0.60;66.40
19403;DHT22;9837;48.888;8.998;2022-12-18T17:33:50;0.60;66.90
19403;DHT22;9837;48.888;8.998;2022-12-18T17:41:13;0.80;65.50
19403;DHT22;9837;48.888;8.998;2022-12-18T17:43:49;0.70;65.80
19403;DHT22;9837;48.888;8.998;2022-12-18T17:53:37;0.30;68.00
19403;DHT22;9837;48.888;8.998;2022-12-18T17:58:31;0.10;68.50
19403;DHT22;9837;48.888;8.998;2022-12-18T18:01:04;0.00;68.90
19403;DHT22;9837;48.888;8.998;2022-12-18T18:03:33;0.00;69.90
19403;DHT22;9837;48.888;8.998;2022-12-18T18:06:04;0.00;68.70
19403;DHT22;9837;48.888;8.998;2022-12-18T18:08:33;0.00;69.10
19403;DHT22;9837;48.888;8.998;2022-12-18T18:11:09;-0.10;69.50
19403;DHT22;9837;48.888;8.998;2022-12-18T18:16:37;0.00;69.50
19403;DHT22;9837;48.888;8.998;2022-12-18T18:19:09;-0.10;69.90
19403;DHT22;9837;48.888;8.998;2022-12-18T18:21:42;0.10;69.80
19403;DHT22;9837;48.888;8.998;2022-12-18T18:24:09;0.40;69.50
19403;DHT22;9837;48.888;8.998;2022-12-18T18:29:23;0.50;68.20
19403;DHT22;9837;48.888;8.998;2022-12-18T18:34:24;0.40;68.40
19403;DHT22;9837;48.888;8.998;2022-12-18T18:36:53;0.50;68.60
19403;DHT22;9837;48.888;8.998;2022-12-18T18:41:50;1.10;66.80
19403;DHT22;9837;48.888;8.998;2022-12-18T18:44:20;1.40;66.90
19403;DHT22;9837;48.888;8.998;2022-12-18T18:51:44;1.60;64.60
19403;DHT22;9837;48.888;8.998;2022-12-18T19:09:00;1.50;65.00
19403;DHT22;9837;48.888;8.998;2022-12-18T19:11:31;1.40;66.10
19403;DHT22;9837;48.888;8.998;2022-12-18T19:16:48;1.30;65.60
19403;DHT22;9837;48.888;8.998;2022-12-18T19:26:38;1.10;66.00
19403;DHT22;9837;48.888;8.998;2022-12-18T19:29:08;1.10;66.40
19403;DHT22;9837;48.888;8.998;2022-12-18T19:34:03;1.10;67.30
19403;DHT22;9837;48.888;8.998;2022-12-18T19:36:30;1.10;66.80
19403;DHT22;9837;48.888;8.998;2022-12-18T19:39:00;1.10;67.60
19403;DHT22;9837;48.888;8.998;2022-12-18T19:41:26;4.00;69.20
19403;DHT22;9837;48.888;8.998;2022-12-18T19:43:52;1.70;65.90
19403;DHT22;9837;48.888;8.998;2022-12-18T19:46:20;1.70;66.70
19403;DHT22;9837;48.888;8.998;2022-12-18T19:48:47;1.70;66.00
19403;DHT22;9837;48.888;8.998;2022-12-18T19:53:40;2.10;65.00
19403;DHT22;9837;48.888;8.998;2022-12-18T19:56:08;5.60;68.10
19403;DHT22;9837;48.888;8.998;2022-12-18T19:58:34;1.90;65.80
19403;DHT22;9837;48.888;8.998;2022-12-18T20:03:26;1.50;66.90
19403;DHT22;9837;48.888;8.998;2022-12-18T20:05:52;1.60;67.40
19403;DHT22;9837;48.888;8.998;2022-12-18T20:08:19;5.40;69.30
19403;DHT22;9837;48.888;8.998;2022-12-18T20:10:44;1.60;66.20
19403;DHT22;9837;48.888;8.998;2022-12-18T20:13:14;1.70;66.00
19403;DHT22;9837;48.888;8.998;2022-12-18T20:15:40;1.70;66.70
19403;DHT22;9837;48.888;8.998;2022-12-18T20:20:33;1.50;66.50
19403;DHT22;9837;48.888;8.998;2022-12-18T20:23:00;1.60;67.30
19403;DHT22;9837;48.888;8.998;2022-12-18T20:25:26;1.70;66.10
19403;DHT22;9837;48.888;8.998;2022-12-18T20:30:18;1.90;66.00
19403;DHT22;9837;48.888;8.998;2022-12-18T20:35:09;2.10;65.90
19403;DHT22;9837;48.888;8.998;2022-12-18T20:37:35;4.60;68.20
19403;DHT22;9837;48.888;8.998;2022-12-18T20:40:01;3.10;67.40
19403;DHT22;9837;48.888;8.998;2022-12-18T20:44:52;2.70;63.90
19403;DHT22;9837;48.888;8.998;2022-12-18T20:47:18;2.80;63.10
19403;DHT22;9837;48.888;8.998;2022-12-18T20:52:10;2.70;63.40
19403;DHT22;9837;48.888;8.998;2022-12-18T20:54:35;5.10;65.80
19403;DHT22;9837;48.888;8.998;2022-12-18T20:57:01;2.90;64.60
19403;DHT22;9837;48.888;8.998;2022-12-18T20:59:26;4.60;65.80
19403;DHT22;9837;48.888;8.998;2022-12-18T21:01:52;2.80;65.00
19403;DHT22;9837;48.888;8.998;2022-12-18T21:04:18;3.80;64.30
19403;DHT22;9837;48.888;8.998;2022-12-18T21:06:44;2.80;62.80
19403;DHT22;9837;48.888;8.998;2022-12-18T21:11:36;3.00;62.60
19403;DHT22;9837;48.888;8.998;2022-12-18T21:14:23;4.40;64.10
19403;DHT22;9837;48.888;8.998;2022-12-18T21:16:50;4.10;64.20
19403;DHT22;9837;48.888;8.998;2022-12-18T21:19:18;3.20;64.10
19403;DHT22;9837;48.888;8.998;2022-12-18T21:21:44;4.40;65.00
19403;DHT22;9837;48.888;8.998;2022-12-18T21:24:10;2.90;64.10
19403;DHT22;9837;48.888;8.998;2022-12-18T21:26:36;4.30;65.60
19403;DHT22;9837;48.888;8.998;2022-12-18T21:29:05;4.10;64.90
19403;DHT22;9837;48.888;8.998;2022-12-18T21:31:34;4.30;64.30
19403;DHT22;9837;48.888;8.998;2022-12-18T21:34:00;3.50;62.30
19403;DHT22;9837;48.888;8.998;2022-12-18T21:36:26;5.60;64.30
19403;DHT22;9837;48.888;8.998;2022-12-18T21:38:53;6.60;64.90
19403;DHT22;9837;48.888;8.998;2022-12-18T21:41:19;3.40;62.50
19403;DHT22;9837;48.888;8.998;2022-12-18T21:44:03;5.30;64.40
19403;DHT22;9837;48.888;8.998;2022-12-18T21:46:36;3.20;63.20
19403;DHT22;9837;48.888;8.998;2022-12-18T21:49:04;7.10;66.50
19403;DHT22;9837;48.888;8.998;2022-12-18T21:51:31;7.00;66.00
19403;DHT22;9837;48.888;8.998;2022-12-18T21:53:57;3.30;62.90
19403;DHT22;9837;48.888;8.998;2022-12-18T21:56:23;5.10;64.70
19403;DHT22;9837;48.888;8.998;2022-12-18T21:58:49;3.10;63.50
19403;DHT22;9837;48.888;8.998;2022-12-18T22:01:16;3.60;64.50
19403;DHT22;9837;48.888;8.998;2022-12-18T22:03:43;3.00;64.50
19403;DHT22;9837;48.888;8.998;2022-12-18T22:06:10;5.00;65.50
19403;DHT22;9837;48.888;8.998;2022-12-18T22:08:36;3.50;64.40
19403;DHT22;9837;48.888;8.998;2022-12-18T22:11:02;3.50;65.50
19403;DHT22;9837;48.888;8.998;2022-12-18T22:13:27;4.50;66.20
19403;DHT22;9837;48.888;8.998;2022-12-18T22:15:53;3.00;64.30
19403;DHT22;9837;48.888;8.998;2022-12-18T22:18:19;3.10;63.80
19403;DHT22;9837;48.888;8.998;2022-12-18T22:20:46;3.40;63.60
19403;DHT22;9837;48.888;8.998;2022-12-18T22:23:12;2.60;64.20
19403;DHT22;9837;48.888;8.998;2022-12-18T22:25:37;2.50;65.00
19403;DHT22;9837;48.888;8.998;2022-12-18T22:28:03;2.90;65.90
19403;DHT22;9837;48.888;8.998;2022-12-18T22:30:47;2.60;64.60
19403;DHT22;9837;48.888;8.998;2022-12-18T22:33:13;4.00;66.20
19403;DHT22;9837;48.888;8.998;2022-12-18T22:35:39;2.60;64.70
19403;DHT22;9837;48.888;8.998;2022-12-18T22:38:05;3.40;65.90
19403;DHT22;9837;48.888;8.998;2022-12-18T22:40:30;2.70;65.20
19403;DHT22;9837;48.888;8.998;2022-12-18T22:42:56;2.90;65.00
19403;DHT22;9837;48.888;8.998;2022-12-18T22:45:23;2.80;63.90
19403;DHT22;9837;48.888;8.998;2022-12-18T22:47:49;2.80;64.60
19403;DHT22;9837;48.888;8.998;2022-12-18T22:50:15;6.50;66.80
19403;DHT22;9837;48.888;8.998;2022-12-18T22:52:40;4.40;65.10
19403;DHT22;9837;48.888;8.998;2022-12-18T22:55:06;2.80;63.60
19403;DHT22;9837;48.888;8.998;2022-12-18T22:57:32;2.80;64.30
19403;DHT22;9837;48.888;8.998;2022-12-18T22:59:58;2.80;63.70
